LICC Información de aeropuertos

Información de pistas
Pista 08 Longitud 7989 ft Ancho 148 ft
Elevación 37 ft Umbral 312 ft Rumbo 84
Pista 26 Longitud 7989 ft Ancho 148 ft
Elevación 17 ft Umbral 279 ft Rumbo 264
Frecuencias
Tipo APP Nombre APP Frequencia 119.25 MHZ
Tipo DIR Nombre DIRECTOR Frequencia 120.8 MHZ
Tipo GND Nombre GND Frequencia 129.725 MHZ
Tipo TWR Nombre TWR Frequencia 118.7 MHZ
Radioayudas
Tipo NDB Nombre Catania Frequencia 345 KHZ
Tipo VOR-DME Nombre Catania Fontanarossa Frequencia 116250 KHZ
Tipo NDB Nombre Catania Fontanarossa Frequencia 407 KHZ
Información meteorológica y NOTAM
ADDS - METARS form results

(1346 UTC 21 October 2021)
Data provider http://aviationweather.gov/metar/data/
 
METAR text: LICC 211320Z 23012KT 200V260 9999 FEW040 26/11 Q1020
Conditions at: LICC (CATANIA/FONTANAR, IT) observed 1320 UTC 21 October 2021
Temperature: 26.0°C (79°F)
Dewpoint: 11.0°C (52°F) [RH = 39%]
Pressure (altimeter): 30.12 inches Hg (1020.0 mb)
Winds: from the SW (230 degrees) at 14 MPH (12 knots; 6.2 m/s)
Visibility: 6 or more miles (10+ km)
Ceiling: at least 12,000 feet AGL
Clouds: few clouds at 4000 feet AGL
Weather: no significant weather observed at this time

METAR text: LICC 211250Z 23012KT 200V260 9999 FEW040 26/13 Q1021
Conditions at: LICC (CATANIA/FONTANAR, IT) observed 1250 UTC 21 October 2021
Temperature: 26.0°C (79°F)
Dewpoint: 13.0°C (55°F) [RH = 45%]
Pressure (altimeter): 30.15 inches Hg (1021.0 mb)
Winds: from the SW (230 degrees) at 14 MPH (12 knots; 6.2 m/s)
Visibility: 6 or more miles (10+ km)
Ceiling: at least 12,000 feet AGL
Clouds: few clouds at 4000 feet AGL
Weather: no significant weather observed at this time

Forecast for: LICC (CATANIA/FONTANAR, IT)
Text: TAF LICC 211100Z 2112/2212 25012KT 9999 SCT040
Forecast period: 1200 UTC 21 October 2021 to 1200 UTC 22 October 2021
Forecast type: FROM: standard forecast or significant change
Winds: from the WSW (250 degrees) at 14 MPH (12 knots; 6.2 m/s)
Visibility: 6 or more miles (10+ km)
Ceiling: at least 12,000 feet AGL
Clouds: scattered clouds at 4000 feet AGL
Weather: no significant weather forecast for this period